createdAt,value
2023-02-08T00:00:15.816Z,8.70
2023-02-08T00:01:15.800Z,8.30
2023-02-08T00:02:15.780Z,8.80
2023-02-08T00:03:15.675Z,8.70
2023-02-08T00:04:15.629Z,8.50
2023-02-08T00:05:15.589Z,9.20
2023-02-08T00:06:15.535Z,8.50
2023-02-08T00:07:15.509Z,9.00
2023-02-08T00:08:15.441Z,8.90
2023-02-08T00:09:15.397Z,9.00
2023-02-08T00:10:15.356Z,8.70
2023-02-08T00:11:15.317Z,8.50
2023-02-08T00:12:15.249Z,8.70
2023-02-08T00:13:15.218Z,8.20
2023-02-08T00:14:15.161Z,8.30
2023-02-08T00:15:15.116Z,8.50
2023-02-08T00:16:15.083Z,8.80
2023-02-08T00:17:15.034Z,8.50
2023-02-08T00:18:14.984Z,9.30
2023-02-08T00:19:14.932Z,8.80
2023-02-08T00:20:14.874Z,8.80
2023-02-08T00:21:14.831Z,8.30
2023-02-08T00:22:14.782Z,8.20
2023-02-08T00:23:14.740Z,8.20
2023-02-08T00:24:14.703Z,8.60
2023-02-08T00:25:14.646Z,8.20
2023-02-08T00:26:14.594Z,8.60
2023-02-08T00:27:14.548Z,8.40
2023-02-08T00:28:14.596Z,9.40
2023-02-08T00:29:14.449Z,8.60
2023-02-08T00:30:14.418Z,8.30
2023-02-08T00:31:14.447Z,8.30
2023-02-08T00:32:14.308Z,8.20
2023-02-08T00:33:14.263Z,8.50
2023-02-08T00:34:14.222Z,7.90
2023-02-08T00:35:14.166Z,8.20
2023-02-08T00:36:14.132Z,8.10
2023-02-08T00:37:14.085Z,8.40
2023-02-08T00:38:14.019Z,8.50
2023-02-08T00:39:13.984Z,8.50
2023-02-08T00:40:13.925Z,8.40
2023-02-08T00:41:13.929Z,7.90
2023-02-08T00:42:13.834Z,8.60
2023-02-08T00:43:13.812Z,8.60
2023-02-08T00:44:13.741Z,9.00
2023-02-08T00:45:13.687Z,8.90
2023-02-08T00:46:13.676Z,8.70
2023-02-08T00:47:13.592Z,8.20
2023-02-08T00:48:13.558Z,8.80
2023-02-08T00:49:13.513Z,9.00
2023-02-08T00:50:13.461Z,8.60
2023-02-08T00:51:13.405Z,9.00
2023-02-08T00:52:13.363Z,8.70
2023-02-08T00:53:13.320Z,9.10
2023-02-08T00:54:13.265Z,8.40
2023-02-08T00:55:13.232Z,7.80
2023-02-08T00:56:13.168Z,7.70
2023-02-08T00:57:13.132Z,8.30
2023-02-08T00:58:13.073Z,8.10
2023-02-08T00:59:13.026Z,8.40
2023-02-08T01:00:12.983Z,8.20
2023-02-08T01:01:12.962Z,8.00
2023-02-08T01:02:13.017Z,7.80
2023-02-08T01:03:12.847Z,8.40
2023-02-08T01:04:12.793Z,8.30
2023-02-08T01:05:12.751Z,8.30
2023-02-08T01:06:12.700Z,9.00
2023-02-08T01:07:12.654Z,7.90
2023-02-08T01:08:12.604Z,8.20
2023-02-08T01:09:12.569Z,8.40
2023-02-08T01:10:12.560Z,7.80
2023-02-08T01:11:12.469Z,7.20
2023-02-08T01:12:12.415Z,8.40
2023-02-08T01:13:12.372Z,8.10
2023-02-08T01:14:12.322Z,8.20
2023-02-08T01:15:12.285Z,8.40
2023-02-08T01:16:12.260Z,7.70
2023-02-08T01:17:12.190Z,8.20
2023-02-08T01:18:12.142Z,7.90
2023-02-08T01:19:12.291Z,8.00
2023-02-08T01:20:12.043Z,8.30
2023-02-08T01:21:11.989Z,7.90
2023-02-08T01:22:11.944Z,8.00
2023-02-08T01:23:11.894Z,7.70
2023-02-08T01:24:11.867Z,7.70
2023-02-08T01:25:11.799Z,7.90
2023-02-08T01:26:11.753Z,7.80
2023-02-08T01:27:11.708Z,7.40
2023-02-08T01:28:11.683Z,7.60
2023-02-08T01:29:11.611Z,7.80
2023-02-08T01:30:11.581Z,9.00
2023-02-08T01:31:11.587Z,7.50
2023-02-08T01:32:11.472Z,8.30
2023-02-08T01:33:11.434Z,7.50
2023-02-08T01:34:11.379Z,7.20
2023-02-08T01:35:11.338Z,7.70
2023-02-08T01:36:11.287Z,7.90
2023-02-08T01:37:11.242Z,7.60
2023-02-08T01:38:11.195Z,7.20
2023-02-08T01:39:11.157Z,8.10
2023-02-08T01:40:11.105Z,7.80
2023-02-08T01:41:11.056Z,7.80
2023-02-08T01:42:11.004Z,7.90
2023-02-08T01:43:10.952Z,7.80
2023-02-08T01:44:10.915Z,8.10
2023-02-08T01:45:10.894Z,7.40
2023-02-08T01:46:10.832Z,8.00
2023-02-08T01:47:10.770Z,7.80
2023-02-08T01:48:10.730Z,8.00
2023-02-08T01:49:10.674Z,7.80
2023-02-08T01:50:10.645Z,7.70
2023-02-08T01:51:10.585Z,8.40
2023-02-08T01:52:10.536Z,8.30
2023-02-08T01:53:10.494Z,8.00
2023-02-08T01:54:10.447Z,7.80
2023-02-08T01:55:10.396Z,7.70
2023-02-08T01:56:10.362Z,7.60
2023-02-08T01:57:10.300Z,7.90
2023-02-08T01:58:10.257Z,7.60
2023-02-08T01:59:10.205Z,8.10
2023-02-08T02:00:10.176Z,7.70
2023-02-08T02:01:10.129Z,7.50
2023-02-08T02:02:10.091Z,7.40
2023-02-08T02:03:10.025Z,7.80
2023-02-08T02:04:10.024Z,7.50
2023-02-08T02:05:09.925Z,7.70
2023-02-08T02:06:09.878Z,7.60
2023-02-08T02:07:09.833Z,8.30
2023-02-08T02:08:09.796Z,7.70
2023-02-08T02:09:09.748Z,8.30
2023-02-08T02:10:09.705Z,7.80
2023-02-08T02:11:09.658Z,8.50
2023-02-08T02:12:09.625Z,7.00
2023-02-08T02:13:09.549Z,7.40
2023-02-08T02:14:09.509Z,7.40
2023-02-08T02:15:09.461Z,8.50
2023-02-08T02:16:09.468Z,7.50
2023-02-08T02:17:09.376Z,7.70
2023-02-08T02:18:09.325Z,7.60
2023-02-08T02:19:09.272Z,7.70
2023-02-08T02:20:09.264Z,7.50
2023-02-08T02:21:09.180Z,8.30
2023-02-08T02:22:09.132Z,7.80
2023-02-08T02:23:09.099Z,7.60
2023-02-08T02:24:09.039Z,7.80
2023-02-08T02:25:08.988Z,7.70
2023-02-08T02:26:08.945Z,7.30
2023-02-08T02:27:08.896Z,8.00
2023-02-08T02:28:08.935Z,7.50
2023-02-08T02:29:08.811Z,7.30
2023-02-08T02:30:08.759Z,7.70
2023-02-08T02:31:08.751Z,7.60
2023-02-08T02:32:08.663Z,7.70
2023-02-08T02:33:08.614Z,7.30
2023-02-08T02:34:08.571Z,7.70
2023-02-08T02:35:08.531Z,7.50
2023-02-08T02:36:08.476Z,7.20
2023-02-08T02:37:08.429Z,7.60
2023-02-08T02:38:08.389Z,7.60
2023-02-08T02:39:08.341Z,7.60
2023-02-08T02:40:08.288Z,7.00
2023-02-08T02:41:08.261Z,7.30
2023-02-08T02:42:08.215Z,7.60
2023-02-08T02:43:08.149Z,7.80
2023-02-08T02:44:08.104Z,7.20
2023-02-08T02:45:08.056Z,7.20
2023-02-08T02:46:08.013Z,7.40
2023-02-08T02:47:07.976Z,7.20
2023-02-08T02:48:07.919Z,7.60
2023-02-08T02:49:07.870Z,7.10
2023-02-08T02:50:07.830Z,7.30
2023-02-08T02:51:07.788Z,7.10
2023-02-08T02:52:07.736Z,6.90
2023-02-08T02:53:07.693Z,7.30
2023-02-08T02:54:07.656Z,6.70
2023-02-08T02:55:07.599Z,6.80
2023-02-08T02:56:07.547Z,7.40
2023-02-08T02:57:07.501Z,6.90
2023-02-08T02:58:07.455Z,7.40
2023-02-08T02:59:07.422Z,7.10
2023-02-08T03:00:07.375Z,6.90
2023-02-08T03:01:07.359Z,6.90
2023-02-08T03:02:07.266Z,6.80
2023-02-08T03:03:07.218Z,6.70
2023-02-08T03:04:07.206Z,6.70
2023-02-08T03:05:07.138Z,7.60
2023-02-08T03:06:07.080Z,6.70
2023-02-08T03:07:07.033Z,6.60
2023-02-08T03:08:06.988Z,7.20
2023-02-08T03:09:06.944Z,6.70
2023-02-08T03:10:06.893Z,6.80
2023-02-08T03:11:06.854Z,7.40
2023-02-08T03:12:06.808Z,7.10
2023-02-08T03:13:06.755Z,6.70
2023-02-08T03:14:06.711Z,6.60
2023-02-08T03:15:06.660Z,6.90
2023-02-08T03:16:06.614Z,6.80
2023-02-08T03:17:06.580Z,6.70
2023-02-08T03:18:06.526Z,7.30
2023-02-08T03:19:06.476Z,6.80
2023-02-08T03:20:06.428Z,6.90
2023-02-08T03:21:06.378Z,6.70
2023-02-08T03:22:06.345Z,6.90
2023-02-08T03:23:06.292Z,7.20
2023-02-08T03:24:06.239Z,7.40
2023-02-08T03:25:06.190Z,7.00
2023-02-08T03:26:06.146Z,7.20
2023-02-08T03:27:06.113Z,6.90
2023-02-08T03:28:06.085Z,6.90
2023-02-08T03:29:06.003Z,7.20
2023-02-08T03:30:05.961Z,6.90
2023-02-08T03:31:05.980Z,6.60
2023-02-08T03:32:05.867Z,6.70
2023-02-08T03:33:05.832Z,7.00
2023-02-08T03:34:05.772Z,6.60
2023-02-08T03:35:05.723Z,6.90
2023-02-08T03:36:05.678Z,6.50
2023-02-08T03:37:05.637Z,6.70
2023-02-08T03:38:05.601Z,6.50
2023-02-08T03:39:05.551Z,6.90
2023-02-08T03:40:05.489Z,7.50
2023-02-08T03:41:05.450Z,7.30
2023-02-08T03:42:05.401Z,6.80
2023-02-08T03:43:05.349Z,6.70
2023-02-08T03:44:05.317Z,8.40
2023-02-08T03:45:05.260Z,6.90
2023-02-08T03:46:05.258Z,6.60
2023-02-08T03:47:05.186Z,6.80
2023-02-08T03:48:05.128Z,6.70
2023-02-08T03:49:05.073Z,6.50
2023-02-08T03:50:05.033Z,7.10
2023-02-08T03:51:04.976Z,6.40
2023-02-08T03:52:04.930Z,6.60
2023-02-08T03:53:04.880Z,6.80
2023-02-08T03:54:04.844Z,6.60
2023-02-08T03:55:04.786Z,7.00
2023-02-08T03:56:04.758Z,6.50
2023-02-08T03:57:04.693Z,7.10
2023-02-08T03:58:04.643Z,6.70
2023-02-08T03:59:04.611Z,6.10
2023-02-08T04:00:04.551Z,7.40
2023-02-08T04:01:04.619Z,7.30
2023-02-08T04:02:04.459Z,7.40
2023-02-08T04:03:04.422Z,7.20
2023-02-08T04:04:04.365Z,7.30
2023-02-08T04:05:04.331Z,6.60
2023-02-08T04:06:04.268Z,7.60
2023-02-08T04:07:04.223Z,8.10
2023-02-08T04:08:04.176Z,6.70
2023-02-08T04:09:04.145Z,6.30
2023-02-08T04:10:04.081Z,6.50
2023-02-08T04:11:04.053Z,6.60
2023-02-08T04:12:03.988Z,7.00
2023-02-08T04:13:03.937Z,7.00
2023-02-08T04:14:03.892Z,6.90
2023-02-08T04:15:03.843Z,7.40
2023-02-08T04:16:03.888Z,7.00
2023-02-08T04:17:03.769Z,6.60
2023-02-08T04:18:03.702Z,7.10
2023-02-08T04:19:03.654Z,7.10
2023-02-08T04:20:03.609Z,7.10
2023-02-08T04:21:03.567Z,7.30
2023-02-08T04:22:03.525Z,6.70
2023-02-08T04:23:03.480Z,6.70
2023-02-08T04:24:03.433Z,7.40
2023-02-08T04:25:03.377Z,6.90
2023-02-08T04:26:03.332Z,7.10
2023-02-08T04:27:05.619Z,7.50
2023-02-08T04:28:03.274Z,7.50
2023-02-08T04:29:03.202Z,7.00
2023-02-08T04:30:03.141Z,6.40
2023-02-08T04:31:03.145Z,7.10
2023-02-08T04:32:03.051Z,7.50
2023-02-08T04:33:02.997Z,7.10
2023-02-08T04:34:02.948Z,6.50
2023-02-08T04:35:02.913Z,8.60
2023-02-08T04:36:02.872Z,6.70
2023-02-08T04:37:02.808Z,7.20
2023-02-08T04:38:02.763Z,6.40
2023-02-08T04:39:02.716Z,6.50
2023-02-08T04:40:02.689Z,7.20
2023-02-08T04:41:02.648Z,6.90
2023-02-08T04:42:03.407Z,6.80
2023-02-08T04:43:02.526Z,7.10
2023-02-08T04:44:02.485Z,7.10
2023-02-08T04:45:02.432Z,6.90
2023-02-08T04:46:02.457Z,7.20
2023-02-08T04:47:02.339Z,7.40
2023-02-08T04:48:02.293Z,7.10
2023-02-08T04:49:02.241Z,7.20
2023-02-08T04:50:02.217Z,8.00
2023-02-08T04:51:02.146Z,7.80
2023-02-08T04:52:02.114Z,8.60
2023-02-08T04:53:02.048Z,7.80
2023-02-08T04:54:02.006Z,7.80
2023-02-08T04:55:01.957Z,7.90
2023-02-08T04:56:01.930Z,7.90
2023-02-08T04:57:01.862Z,8.10
2023-02-08T04:58:01.817Z,8.30
2023-02-08T04:59:01.778Z,7.90
2023-02-08T05:00:01.773Z,9.10
2023-02-08T05:01:01.676Z,7.90
2023-02-08T05:02:01.624Z,8.80
2023-02-08T05:03:01.579Z,8.40
2023-02-08T05:04:01.531Z,8.40
2023-02-08T05:05:01.549Z,8.40
2023-02-08T05:06:01.434Z,8.00
2023-02-08T05:07:01.384Z,8.30
2023-02-08T05:08:01.348Z,8.30
2023-02-08T05:09:01.286Z,8.60
2023-02-08T05:10:01.243Z,8.30
2023-02-08T05:11:01.213Z,8.60
2023-02-08T05:12:01.145Z,8.80
2023-02-08T05:13:01.095Z,8.40
2023-02-08T05:14:01.051Z,8.70
2023-02-08T05:15:01.002Z,12.60
2023-02-08T05:16:01.012Z,8.40
2023-02-08T05:17:00.917Z,8.80
2023-02-08T05:18:00.854Z,8.10
2023-02-08T05:19:00.809Z,9.10
2023-02-08T05:20:00.780Z,9.40
2023-02-08T05:21:10.224Z,9.30
2023-02-08T05:22:00.664Z,9.60
2023-02-08T05:23:00.646Z,9.10
2023-02-08T05:24:00.570Z,8.20
2023-02-08T05:25:00.536Z,8.80
2023-02-08T05:26:00.472Z,9.10
2023-02-08T05:27:00.429Z,9.00
2023-02-08T05:28:00.439Z,9.40
2023-02-08T05:29:00.342Z,8.70
2023-02-08T05:30:00.296Z,9.70
2023-02-08T05:31:00.271Z,9.20
2023-02-08T05:32:00.232Z,9.30
2023-02-08T05:33:00.140Z,9.20
2023-02-08T05:34:00.114Z,9.10
2023-02-08T05:35:00.054Z,9.30
2023-02-08T05:35:59.996Z,8.70
2023-02-08T05:36:59.945Z,8.20
2023-02-08T05:37:59.899Z,7.50
2023-02-08T05:38:59.848Z,7.80
2023-02-08T05:39:59.833Z,8.20
2023-02-08T05:40:59.767Z,11.80
2023-02-08T05:41:59.701Z,20.00
2023-02-08T05:42:59.653Z,9.20
2023-02-08T05:43:59.605Z,8.80
2023-02-08T05:44:59.559Z,10.00
2023-02-08T05:45:59.509Z,9.30
2023-02-08T05:46:59.539Z,9.80
2023-02-08T05:47:59.412Z,8.40
2023-02-08T05:48:59.365Z,7.80
2023-02-08T05:49:59.316Z,7.00
2023-02-08T05:50:59.275Z,7.70
2023-02-08T05:51:59.223Z,7.20
2023-02-08T05:52:59.193Z,7.00
2023-02-08T05:53:59.134Z,7.00
2023-02-08T05:54:59.077Z,6.80
2023-02-08T05:55:59.058Z,7.30
2023-02-08T05:56:58.993Z,6.60
2023-02-08T05:57:58.933Z,7.00
2023-02-08T05:58:58.902Z,7.10
2023-02-08T05:59:58.838Z,7.40
2023-02-08T06:00:58.803Z,7.20
2023-02-08T06:01:58.755Z,6.90
2023-02-08T06:02:58.729Z,6.60
2023-02-08T06:03:58.652Z,7.20
2023-02-08T06:04:58.605Z,6.70
2023-02-08T06:05:58.554Z,6.80
2023-02-08T06:06:58.505Z,7.10
2023-02-08T06:07:58.488Z,7.30
2023-02-08T06:08:58.409Z,7.00
2023-02-08T06:09:58.360Z,7.40
2023-02-08T06:10:58.314Z,7.80
2023-02-08T06:11:58.266Z,7.30
2023-02-08T06:12:58.237Z,7.00
2023-02-08T06:13:58.172Z,6.80
2023-02-08T06:14:58.122Z,8.40
2023-02-08T06:15:58.073Z,7.60
2023-02-08T06:16:58.025Z,7.30
2023-02-08T06:17:57.979Z,6.90
2023-02-08T06:18:57.941Z,6.90
2023-02-08T06:19:57.882Z,6.90
2023-02-08T06:20:57.851Z,7.00
2023-02-08T06:21:57.794Z,7.40
2023-02-08T06:22:57.748Z,7.90
2023-02-08T06:23:57.695Z,7.00
2023-02-08T06:24:57.649Z,7.10
2023-02-08T06:25:57.604Z,7.20
2023-02-08T06:26:57.568Z,7.00
2023-02-08T06:27:57.710Z,7.10
2023-02-08T06:28:57.454Z,6.90
2023-02-08T06:29:57.408Z,7.80
2023-02-08T06:30:57.374Z,7.10
2023-02-08T06:31:57.438Z,7.20
2023-02-08T06:32:57.271Z,8.40
2023-02-08T06:33:57.216Z,7.40
2023-02-08T06:34:57.172Z,8.00
2023-02-08T06:35:57.132Z,8.00
2023-02-08T06:36:57.074Z,8.50
2023-02-08T06:37:57.025Z,7.60
2023-02-08T06:38:56.980Z,7.90
2023-02-08T06:39:56.931Z,7.70
2023-02-08T06:40:56.888Z,7.90
2023-02-08T06:41:56.854Z,7.60
2023-02-08T06:42:56.788Z,8.00
2023-02-08T06:43:56.739Z,7.80
2023-02-08T06:44:56.690Z,8.40
2023-02-08T06:45:56.666Z,8.40
2023-02-08T06:46:56.596Z,8.50
2023-02-08T06:47:56.563Z,7.70
2023-02-08T06:48:56.500Z,8.20
2023-02-08T06:49:56.452Z,8.10
2023-02-08T06:50:56.406Z,8.30
2023-02-08T06:51:56.376Z,7.00
2023-02-08T06:52:56.324Z,7.70
2023-02-08T06:53:56.262Z,8.10
2023-02-08T06:54:56.216Z,7.50
2023-02-08T06:55:56.161Z,7.60
2023-02-08T06:56:56.189Z,8.30
2023-02-08T06:57:56.069Z,8.30
2023-02-08T06:58:56.028Z,8.10
2023-02-08T06:59:55.972Z,8.00
2023-02-08T07:00:55.938Z,8.30
2023-02-08T07:01:55.889Z,8.10
2023-02-08T07:02:55.836Z,7.90
2023-02-08T07:03:55.779Z,7.60
2023-02-08T07:04:55.743Z,7.90
2023-02-08T07:06:04.573Z,9.30
2023-02-08T07:06:55.639Z,8.50
2023-02-08T07:07:55.589Z,7.80
2023-02-08T07:08:55.543Z,8.10
2023-02-08T07:09:55.494Z,7.70
2023-02-08T07:10:55.462Z,8.00
2023-02-08T07:11:55.398Z,8.10
2023-02-08T07:12:55.353Z,8.20
2023-02-08T07:13:55.300Z,7.70
2023-02-08T07:14:55.254Z,9.80
2023-02-08T07:15:55.207Z,10.30
2023-02-08T07:16:56.259Z,9.00
2023-02-08T07:17:55.113Z,10.50
2023-02-08T07:18:55.063Z,8.60
2023-02-08T07:19:55.029Z,8.10
2023-02-08T07:20:54.967Z,9.20
2023-02-08T07:21:54.919Z,7.70
2023-02-08T07:22:54.882Z,8.40
2023-02-08T07:23:54.836Z,8.30
2023-02-08T07:24:54.777Z,11.60
2023-02-08T07:25:54.727Z,15.00
2023-02-08T07:26:54.682Z,13.30
2023-02-08T07:27:54.647Z,9.50
2023-02-08T07:28:54.605Z,8.50
2023-02-08T07:29:54.533Z,8.60
2023-02-08T07:30:54.517Z,11.00
2023-02-08T07:31:54.555Z,9.60
2023-02-08T07:32:54.392Z,8.80
2023-02-08T07:33:54.342Z,9.50
2023-02-08T07:34:54.312Z,8.80
2023-02-08T07:35:54.250Z,10.90
2023-02-08T07:36:54.200Z,10.50
2023-02-08T07:37:54.152Z,12.90
2023-02-08T07:38:54.108Z,12.40
2023-02-08T07:39:54.067Z,15.10
2023-02-08T07:40:54.012Z,9.30
2023-02-08T07:41:54.075Z,14.10
2023-02-08T07:42:53.914Z,13.90
2023-02-08T07:43:53.870Z,9.70
2023-02-08T07:44:53.827Z,13.00
2023-02-08T07:45:53.828Z,9.70
2023-02-08T07:46:53.725Z,12.20
2023-02-08T07:47:53.689Z,10.40
2023-02-08T07:48:53.632Z,9.50
2023-02-08T07:49:53.582Z,11.60
2023-02-08T07:50:53.554Z,9.90
2023-02-08T07:51:53.487Z,12.50
2023-02-08T07:52:53.446Z,10.80
2023-02-08T07:53:53.407Z,8.20
2023-02-08T07:54:53.350Z,8.00
2023-02-08T07:55:53.303Z,9.00
2023-02-08T07:56:53.261Z,8.80
2023-02-08T07:57:53.220Z,9.20
2023-02-08T07:58:53.167Z,9.90
2023-02-08T07:59:54.206Z,9.50
2023-02-08T08:00:53.078Z,9.00
2023-02-08T08:01:53.087Z,8.90
2023-02-08T08:02:52.999Z,10.00
2023-02-08T08:03:53.024Z,10.30
2023-02-08T08:04:52.903Z,8.40
2023-02-08T08:05:54.895Z,10.40
2023-02-08T08:06:52.817Z,13.70
2023-02-08T08:07:52.770Z,9.10
2023-02-08T08:08:52.727Z,8.50
2023-02-08T08:09:52.683Z,6.70
2023-02-08T08:10:52.640Z,8.90
2023-02-08T08:11:52.608Z,7.30
2023-02-08T08:12:52.553Z,9.20
2023-02-08T08:13:52.521Z,9.10
2023-02-08T08:14:52.477Z,9.30
2023-02-08T08:15:52.442Z,13.40
2023-02-08T08:16:52.406Z,10.10
2023-02-08T08:17:52.344Z,7.70
2023-02-08T08:18:52.306Z,10.10
2023-02-08T08:19:52.261Z,12.30
2023-02-08T08:20:52.219Z,10.40
2023-02-08T08:21:52.176Z,10.90
2023-02-08T08:22:52.147Z,9.50
2023-02-08T08:23:52.093Z,10.70
2023-02-08T08:24:52.064Z,24.00
2023-02-08T08:25:52.010Z,14.00
2023-02-08T08:26:52.088Z,18.10
2023-02-08T08:27:51.958Z,15.70
2023-02-08T08:28:51.918Z,21.60
2023-02-08T08:29:51.847Z,25.00
2023-02-08T08:30:51.899Z,32.20
2023-02-08T08:31:51.807Z,16.70
2023-02-08T08:32:51.726Z,15.50
2023-02-08T08:33:51.683Z,14.20
2023-02-08T08:34:51.663Z,14.30
2023-02-08T08:35:51.603Z,16.90
2023-02-08T08:36:51.574Z,15.30
2023-02-08T08:37:51.520Z,13.50
2023-02-08T08:38:51.489Z,15.80
2023-02-08T08:39:51.445Z,18.70
2023-02-08T08:40:51.417Z,13.60
2023-02-08T08:41:51.371Z,12.80
2023-02-08T08:42:51.325Z,12.10
2023-02-08T08:43:51.280Z,10.40
2023-02-08T08:44:51.243Z,10.80
2023-02-08T08:45:52.999Z,13.80
2023-02-08T08:46:51.183Z,11.20
2023-02-08T08:47:51.121Z,10.40
2023-02-08T08:48:51.082Z,9.60
2023-02-08T08:49:51.044Z,11.60
2023-02-08T08:50:51.012Z,13.80
2023-02-08T08:51:51.050Z,18.20
2023-02-08T08:52:50.936Z,15.50
2023-02-08T08:53:50.887Z,17.80
2023-02-08T08:54:50.856Z,17.50
2023-02-08T08:55:50.810Z,20.20
2023-02-08T08:56:50.786Z,27.50
2023-02-08T08:57:50.739Z,24.60
2023-02-08T08:58:50.710Z,25.30
2023-02-08T08:59:50.656Z,23.60
2023-02-08T09:00:50.628Z,24.70
2023-02-08T09:01:50.603Z,13.30
2023-02-08T09:02:50.550Z,17.50
2023-02-08T09:03:50.506Z,12.90
2023-02-08T09:04:50.462Z,15.70
2023-02-08T09:05:50.415Z,12.60
2023-02-08T09:06:50.382Z,9.10
2023-02-08T09:07:50.343Z,8.80
2023-02-08T09:08:51.758Z,8.50
2023-02-08T09:09:50.287Z,9.10
2023-02-08T09:10:50.252Z,8.50
2023-02-08T09:11:50.187Z,9.50
2023-02-08T09:12:50.181Z,9.20
2023-02-08T09:13:50.109Z,9.30
2023-02-08T09:14:50.078Z,10.60
2023-02-08T09:15:50.096Z,9.70
2023-02-08T09:16:49.989Z,11.80
2023-02-08T09:17:49.964Z,9.60
2023-02-08T09:18:49.916Z,10.00
2023-02-08T09:19:49.882Z,9.70
2023-02-08T09:20:49.858Z,7.70
2023-02-08T09:21:49.812Z,8.50
2023-02-08T09:22:49.779Z,10.20
2023-02-08T09:23:49.755Z,9.90
2023-02-08T09:24:49.697Z,8.20
2023-02-08T09:25:50.187Z,8.80
2023-02-08T09:26:49.637Z,11.10
2023-02-08T09:27:49.625Z,9.10
2023-02-08T09:28:49.546Z,7.80
2023-02-08T09:29:49.526Z,8.50
2023-02-08T09:30:49.499Z,10.80
2023-02-08T09:31:49.489Z,7.70
2023-02-08T09:32:49.437Z,7.80
2023-02-08T09:33:49.370Z,7.20
2023-02-08T09:34:49.333Z,9.00
2023-02-08T09:35:49.684Z,8.70
2023-02-08T09:36:49.272Z,8.90
2023-02-08T09:37:49.226Z,9.20
2023-02-08T09:38:49.205Z,7.90
2023-02-08T09:39:49.167Z,10.40
2023-02-08T09:40:49.117Z,7.10
2023-02-08T09:41:49.093Z,7.80
2023-02-08T09:42:49.045Z,9.60
2023-02-08T09:43:49.013Z,9.70
2023-02-08T09:44:48.990Z,8.00
2023-02-08T09:45:59.320Z,6.50
2023-02-08T09:46:48.930Z,7.00
2023-02-08T09:47:48.876Z,7.80
2023-02-08T09:48:48.834Z,6.50
2023-02-08T09:49:48.814Z,6.60
2023-02-08T09:50:48.780Z,7.30
2023-02-08T09:51:48.728Z,6.70
2023-02-08T09:52:48.694Z,6.90
2023-02-08T09:53:48.667Z,6.20
2023-02-08T09:54:48.622Z,8.60
2023-02-08T09:55:48.587Z,6.60
2023-02-08T09:56:48.561Z,6.80
2023-02-08T09:57:48.524Z,8.90
2023-02-08T09:58:48.493Z,8.10
2023-02-08T09:59:48.449Z,7.30
2023-02-08T10:00:48.447Z,7.40
2023-02-08T10:01:48.384Z,7.00
2023-02-08T10:02:48.341Z,7.90
2023-02-08T10:03:48.334Z,6.80
2023-02-08T10:04:48.267Z,10.20
2023-02-08T10:05:48.230Z,6.60
2023-02-08T10:06:50.059Z,7.30
2023-02-08T10:07:48.191Z,6.20
2023-02-08T10:08:48.123Z,8.60
2023-02-08T10:09:48.088Z,6.20
2023-02-08T10:10:48.062Z,6.10
2023-02-08T10:11:48.021Z,9.00
2023-02-08T10:12:47.986Z,7.70
2023-02-08T10:13:48.047Z,7.50
2023-02-08T10:14:47.916Z,9.30
2023-02-08T10:15:47.868Z,7.20
2023-02-08T10:16:47.837Z,6.70
2023-02-08T10:17:47.812Z,8.30
2023-02-08T10:18:47.765Z,6.70
2023-02-08T10:19:47.726Z,6.30
2023-02-08T10:20:47.686Z,6.60
2023-02-08T10:21:47.667Z,7.50
2023-02-08T10:22:47.612Z,8.30
2023-02-08T10:23:47.592Z,8.70
2023-02-08T10:24:47.541Z,7.20
2023-02-08T10:25:47.546Z,7.50
2023-02-08T10:26:47.476Z,7.90
2023-02-08T10:27:47.442Z,6.60
2023-02-08T10:28:47.399Z,6.70
2023-02-08T10:29:47.365Z,8.60
2023-02-08T10:30:47.682Z,6.50
2023-02-08T10:31:47.462Z,6.40
2023-02-08T10:32:47.253Z,7.00
2023-02-08T10:33:47.224Z,7.90
2023-02-08T10:34:47.176Z,6.70
2023-02-08T10:35:47.147Z,5.80
2023-02-08T10:36:47.114Z,6.80
2023-02-08T10:37:47.110Z,6.80
2023-02-08T10:38:47.307Z,6.20
2023-02-08T10:39:46.996Z,6.40
2023-02-08T10:40:46.962Z,6.20
2023-02-08T10:41:46.926Z,6.60
2023-02-08T10:42:46.887Z,8.20
2023-02-08T10:43:46.871Z,6.20
2023-02-08T10:44:48.379Z,7.40
2023-02-08T10:45:46.821Z,6.20
2023-02-08T10:46:46.742Z,5.60
2023-02-08T10:47:46.705Z,5.80
2023-02-08T10:48:46.694Z,6.20
2023-02-08T10:49:46.638Z,5.50
2023-02-08T10:50:46.600Z,7.20
2023-02-08T10:51:46.599Z,6.10
2023-02-08T10:52:46.525Z,7.30
2023-02-08T10:53:46.491Z,8.20
2023-02-08T10:54:46.464Z,6.30
2023-02-08T10:55:46.682Z,6.30
2023-02-08T10:56:46.384Z,6.30
2023-02-08T10:57:46.353Z,5.90
2023-02-08T10:58:46.314Z,5.30
2023-02-08T10:59:46.310Z,5.50
2023-02-08T11:00:46.348Z,6.70
2023-02-08T11:01:46.213Z,5.50
2023-02-08T11:02:46.165Z,5.40
2023-02-08T11:03:46.140Z,6.10
2023-02-08T11:04:46.107Z,7.90
2023-02-08T11:05:46.060Z,5.60
2023-02-08T11:06:46.024Z,6.00
2023-02-08T11:07:46.008Z,5.90
2023-02-08T11:08:45.955Z,5.10
2023-02-08T11:09:45.924Z,5.40
2023-02-08T11:10:45.901Z,5.80
2023-02-08T11:11:45.849Z,6.10
2023-02-08T11:12:45.812Z,5.50
2023-02-08T11:13:45.796Z,5.30
2023-02-08T11:14:47.534Z,5.90
2023-02-08T11:15:45.937Z,6.70
2023-02-08T11:16:45.710Z,6.00
2023-02-08T11:17:45.635Z,6.30
2023-02-08T11:18:45.598Z,6.60
2023-02-08T11:19:45.571Z,5.50
2023-02-08T11:20:45.533Z,4.90
2023-02-08T11:21:52.627Z,4.30
2023-02-08T11:22:45.456Z,6.70
2023-02-08T11:23:45.422Z,4.90
2023-02-08T11:24:45.384Z,5.60
2023-02-08T11:25:45.350Z,4.60
2023-02-08T11:26:45.327Z,4.80
2023-02-08T11:27:45.280Z,5.10
2023-02-08T11:28:45.247Z,4.60
2023-02-08T11:29:45.215Z,4.70
2023-02-08T11:30:45.234Z,4.70
2023-02-08T11:31:45.166Z,6.30
2023-02-08T11:32:45.106Z,5.70
2023-02-08T11:33:45.062Z,4.70
2023-02-08T11:34:45.026Z,5.40
2023-02-08T11:35:45.262Z,4.80
2023-02-08T11:36:44.952Z,5.30
2023-02-08T11:37:44.920Z,4.60
2023-02-08T11:38:44.873Z,6.40
2023-02-08T11:39:44.844Z,6.10
2023-02-08T11:40:44.802Z,4.90
2023-02-08T11:41:44.769Z,5.90
2023-02-08T11:42:44.730Z,4.80
2023-02-08T11:43:44.717Z,4.80
2023-02-08T11:44:44.659Z,4.70
2023-02-08T11:45:44.988Z,6.30
2023-02-08T11:46:44.589Z,5.00
2023-02-08T11:47:44.549Z,4.40
2023-02-08T11:48:44.508Z,5.90
2023-02-08T11:49:44.486Z,5.30
2023-02-08T11:50:44.431Z,4.40
2023-02-08T11:51:44.401Z,4.40
2023-02-08T11:52:44.360Z,4.50
2023-02-08T11:53:44.344Z,4.60
2023-02-08T11:54:44.290Z,4.50
2023-02-08T11:55:44.674Z,5.70
2023-02-08T11:56:44.219Z,4.00
2023-02-08T11:57:44.179Z,3.80
2023-02-08T11:58:44.139Z,30.60
2023-02-08T11:59:44.118Z,4.30
2023-02-08T12:00:44.067Z,4.20
2023-02-08T12:01:44.047Z,4.00
2023-02-08T12:02:44.073Z,5.00
2023-02-08T12:03:43.994Z,3.90
2023-02-08T12:04:43.916Z,4.10
2023-02-08T12:05:44.234Z,4.00
2023-02-08T12:06:43.843Z,4.40
2023-02-08T12:07:43.811Z,4.60
2023-02-08T12:08:43.782Z,4.00
2023-02-08T12:09:43.734Z,4.10
2023-02-08T12:10:43.691Z,22.40
2023-02-08T12:11:43.681Z,4.40
2023-02-08T12:12:43.617Z,4.40
2023-02-08T12:13:43.583Z,4.90
2023-02-08T12:14:43.541Z,4.60
2023-02-08T12:15:57.544Z,4.40
2023-02-08T12:16:43.501Z,4.10
2023-02-08T12:17:43.435Z,4.20
2023-02-08T12:18:43.390Z,4.00
2023-02-08T12:19:43.353Z,4.10
2023-02-08T12:20:43.316Z,3.80
2023-02-08T12:21:43.300Z,4.40
2023-02-08T12:22:43.275Z,3.70
2023-02-08T12:23:43.206Z,3.80
2023-02-08T12:24:43.163Z,3.70
2023-02-08T12:25:43.376Z,4.00
2023-02-08T12:26:43.100Z,4.40
2023-02-08T12:27:43.055Z,4.20
2023-02-08T12:28:43.019Z,4.70
2023-02-08T12:29:47.845Z,4.00
2023-02-08T12:30:43.009Z,4.10
2023-02-08T12:31:42.934Z,4.10
2023-02-08T12:32:42.865Z,4.70
2023-02-08T12:33:42.839Z,4.30
2023-02-08T12:34:42.788Z,5.00
2023-02-08T12:35:54.038Z,5.50
2023-02-08T12:36:42.702Z,4.60
2023-02-08T12:37:42.665Z,5.10
2023-02-08T12:38:42.638Z,4.30
2023-02-08T12:39:42.591Z,4.30
2023-02-08T12:40:42.549Z,4.90
2023-02-08T12:41:42.527Z,6.10
2023-02-08T12:42:42.473Z,4.20
2023-02-08T12:43:42.436Z,4.10
2023-02-08T12:44:42.406Z,5.70
2023-02-08T12:45:42.670Z,5.60
2023-02-08T12:46:42.327Z,4.40
2023-02-08T12:47:43.721Z,4.50
2023-02-08T12:48:42.244Z,4.30
2023-02-08T12:49:42.206Z,4.40
2023-02-08T12:50:42.184Z,4.20
2023-02-08T12:51:42.135Z,4.30
2023-02-08T12:52:42.093Z,4.50
2023-02-08T12:53:42.058Z,5.10
2023-02-08T12:54:42.016Z,4.80
2023-02-08T12:55:42.343Z,4.30
2023-02-08T12:56:43.526Z,4.20
2023-02-08T12:57:41.915Z,3.60
2023-02-08T12:58:41.864Z,3.70
2023-02-08T12:59:41.836Z,3.70
2023-02-08T13:00:42.272Z,3.90
2023-02-08T13:01:41.787Z,4.90
2023-02-08T13:02:41.796Z,3.80
2023-02-08T13:03:41.676Z,4.80
2023-02-08T13:04:41.640Z,4.10
2023-02-08T13:05:46.227Z,4.80
2023-02-08T13:06:41.563Z,4.00
2023-02-08T13:07:41.535Z,4.00
2023-02-08T13:08:41.489Z,4.30
2023-02-08T13:09:41.459Z,3.70
2023-02-08T13:10:41.420Z,4.00
2023-02-08T13:11:41.396Z,4.20
2023-02-08T13:12:41.334Z,4.00
2023-02-08T13:13:41.298Z,4.10
2023-02-08T13:14:41.266Z,4.80